Nahanni Butte, Canada
Current Conditions -  °F | °C
As of 3:00 AM on Sunday 25 Jan 2015 (Local Time) from CYFS Reporting Station
Light Snow Light Snow  
Wind Chill: -2°   Ceiling: 600
Heat Index: -2°   Visibility: 15mi
Dew Point: -8°   Wind: 3mph
Humidity: 78%   Direction: 350°N
Pressure: 29.63"   Gusts: NA
Location:  61.05°N, 123.37°W
Report Text: CYFS 251000Z 35003KT 15SM -SG OVC006 M19/M22 A2963 RMK ST8 CIG RAG SLP053
Loading
Personal Weather Stations






























Interactive Weather Map New forecast layout! Learn more

10-Day Weather Forecast

Advertisements
Track Severe Weather on mobile